ADDS METAR Data INFO
IDs: Format: Raw Decoded Include TAF

Data at: 0927 UTC 17 Oct 2017

KCZL 170915Z AUTO 00000KT 10SM CLR 07/07 A3028 RMK AO2 T00700067
KCZL 170855Z AUTO 00000KT 10SM CLR 08/07 A3028 RMK AO2 T00750071
KCZL 170835Z AUTO 00000KT 10SM CLR 07/07 A3027 RMK AO2 T00740071
KCZL 170815Z AUTO 00000KT 10SM CLR 08/07 A3027 RMK AO2 T00770074
KCZL 170755Z AUTO 00000KT 10SM CLR 08/08 A3027 RMK AO2 T00770075
KCZL 170735Z AUTO 00000KT 10SM CLR 08/08 A3027 RMK AO2 T00770076
KCZL 170715Z AUTO 34003KT 10SM CLR 08/08 A3027 RMK AO2 T00770075
KCZL 170655Z AUTO 00000KT 10SM CLR 08/08 A3027 RMK AO2 T00800076
KCZL 170635Z AUTO 00000KT 10SM CLR 08/08 A3027 RMK AO2 T00800076
KCZL 170615Z AUTO 00000KT 10SM CLR 09/08 A3027 RMK AO2 T00860081
KCZL 170555Z AUTO 00000KT 10SM CLR 09/08 A3027 RMK AO2 T00880081 10152 20088 401970088
KCZL 170535Z AUTO 00000KT 10SM CLR 09/08 A3027 RMK AO2 T00900075
KCZL 170515Z AUTO 00000KT 10SM CLR 10/07 A3027 RMK AO2 T01020071
KCZL 170455Z AUTO 05003KT 10SM CLR 11/07 A3026 RMK AO2 T01050072
KCZL 170435Z AUTO 00000KT 10SM CLR 11/07 A3026 RMK AO2 T01100070
KCZL 170415Z AUTO 00000KT 10SM CLR 11/07 A3026 RMK AO2 T01140065
KCZL 170355Z AUTO 00000KT 10SM CLR 12/06 A3025 RMK AO2 T01200062
KCZL 170335Z AUTO 01003KT 10SM CLR 13/06 A3026 RMK AO2 T01250060
KCZL 170315Z AUTO 36004KT 10SM CLR 13/06 A3025 RMK AO2 T01270061
KCZL 170255Z AUTO 02003KT 10SM CLR 13/06 A3025 RMK AO2 T01300061
KCZL 170235Z AUTO 01003KT 10SM CLR 13/06 A3025 RMK AO2 T01330064
KCZL 170215Z AUTO 01007KT 10SM CLR 13/07 A3024 RMK AO2 T01310070
KCZL 170155Z AUTO 36004KT 10SM CLR 13/07 A3024 RMK AO2 T01310069
KCZL 170135Z AUTO 02004KT 10SM CLR 13/07 A3024 RMK AO2 T01300072
KCZL 170115Z AUTO 05003KT 10SM CLR 13/07 A3023 RMK AO2 T01310074
KCZL 170055Z AUTO 00000KT 10SM CLR 14/07 A3022 RMK AO2 T01360070
KCZL 170035Z AUTO 01003KT 10SM CLR 14/07 A3022 RMK AO2 T01400070
KCZL 170015Z AUTO 03005KT 10SM CLR 15/07 A3021 RMK AO2 T01470067
KCZL 162355Z AUTO 02006KT 10SM CLR 15/07 A3020 RMK AO2 T01520066 10197 20152
KCZL 162335Z AUTO 01005KT 10SM CLR 16/07 A3019 RMK AO2 T01550067
KCZL 162315Z AUTO 02005KT 10SM CLR 16/07 A3018 RMK AO2 T01620065
KCZL 162255Z AUTO 02004KT 10SM CLR 17/06 A3018 RMK AO2 T01680063
KCZL 162235Z AUTO 02011G14KT 10SM CLR 18/06 A3017 RMK AO2 T01760061
KCZL 162215Z AUTO 02012G16KT 10SM CLR 18/06 A3016 RMK AO2 T01810062
KCZL 162155Z AUTO 03011G17KT 10SM CLR 19/06 A3016 RMK AO2 T01860063
KCZL 162135Z AUTO 03010G14KT 10SM CLR 19/06 A3015 RMK AO2 T01890064
KCZL 162115Z AUTO 02007G15KT 340V040 10SM CLR 19/06 A3015 RMK AO2 T01930061
KCZL 162055Z AUTO 03009G14KT 10SM CLR 20/06 A3015 RMK AO2 T01960064
KCZL 162035Z AUTO 36009G22KT 340V040 10SM CLR 19/06 A3017 RMK AO2 T01940059
KCZL 162015Z AUTO 36011G22KT 10SM CLR 20/06 A3016 RMK AO2 T01950059
KCZL 161955Z AUTO 36009G17KT 10SM CLR 19/06 A3016 RMK AO2 T01940058
KCZL 161935Z AUTO 02011G21KT 10SM CLR 20/06 A3016 RMK AO2 T01950059
KCZL 161915Z AUTO 36012G18KT 10SM CLR 19/06 A3017 RMK AO2 T01940064
KCZL 161855Z AUTO 03012G21KT 10SM CLR 19/06 A3017 RMK AO2 T01900063
KCZL 161835Z AUTO 01010G20KT 10SM CLR 19/06 A3018 RMK AO2 T01870060
KCZL 161815Z AUTO 02013G20KT 10SM CLR 19/07 A3019 RMK AO2 T01890065
KCZL 161755Z AUTO 01013G19KT 10SM CLR 18/07 A3020 RMK AO2 T01840065 10185 20123
KCZL 161735Z AUTO 01014G19KT 10SM CLR 18/07 A3020 RMK AO2 T01790066
KCZL 161715Z AUTO 01007G20KT 330V050 10SM CLR 17/07 A3021 RMK AO2 T01730067
KCZL 161655Z AUTO 02011G19KT 10SM CLR 17/07 A3021 RMK AO2 T01680068
KCZL 161635Z AUTO 01012G15KT 10SM CLR 17/07 A3022 RMK AO2 T01680074
KCZL 161615Z AUTO 02012G19KT 340V040 10SM SCT028 16/07 A3022 RMK AO2 T01590071
KCZL 161555Z AUTO 01010G18KT 10SM SCT026 15/07 A3022 RMK AO2 T01500072
KCZL 161535Z AUTO 02013G21KT 10SM CLR 15/07 A3022 RMK AO2 T01460070
KCZL 161515Z AUTO 36014G20KT 10SM CLR 15/07 A3021 RMK AO2 T01470072
KCZL 161455Z AUTO 35011G20KT 10SM BKN023 14/07 A3021 RMK AO2 T01400074
KCZL 161435Z AUTO 36009G18KT 340V040 10SM OVC021 13/07 A3021 RMK AO2 T01330073
KCZL 161415Z AUTO 36010G19KT 10SM OVC021 13/08 A3021 RMK AO2 T01310075
KCZL 161355Z AUTO 36009G16KT 310V020 10SM OVC021 13/08 A3021 RMK AO2 T01300076
KCZL 161335Z AUTO 36011G18KT 10SM OVC021 13/08 A3020 RMK AO2 T01260076
KCZL 161315Z AUTO 35012G19KT 310V010 10SM OVC021 13/08 A3020 RMK AO2 T01250076
KCZL 161255Z AUTO 35007G15KT 10SM OVC021 13/08 A3019 RMK AO2 T01250080
KCZL 161235Z AUTO 35009G19KT 320V020 10SM OVC021 13/08 A3018 RMK AO2 T01250082
KCZL 161215Z AUTO 36009G16KT 10SM OVC021 12/09 A3017 RMK AO2 T01230085
KCZL 161155Z AUTO 36012G16KT 10SM OVC021 13/09 A3017 RMK AO2 T01250090 10182 20125
KCZL 161135Z AUTO 36010G17KT 340V040 10SM OVC023 13/10 A3016 RMK AO2 T01250096
KCZL 161115Z AUTO 35009G18KT 10SM BKN018 OVC025 13/10 A3015 RMK AO2 T01250100
KCZL 161055Z AUTO 35010G15KT 10SM OVC018 13/11 A3015 RMK AO2 T01270105
KCZL 161035Z AUTO 36010G19KT 320V020 10SM OVC018 13/11 A3014 RMK AO2 T01310111
KCZL 161015Z AUTO 02009G16KT 10SM BKN015 OVC021 14/12 A3013 RMK AO2 T01370121
KCZL 160955Z AUTO 01008G16KT 10SM OVC021 14/12 A3013 RMK AO2 T01400123
KCZL 160935Z AUTO 36007G14KT 10SM OVC017 14/13 A3012 RMK AO2 T01430131
KCZL 160915Z AUTO 35009KT 10SM OVC015 15/14 A3012 RMK AO2 T01470136
KCZL 160855Z AUTO 01008G14KT 10SM BKN015 OVC043 15/14 A3011 RMK AO2 T01500142
KCZL 160835Z AUTO 36007KT 10SM SCT021 OVC043 15/15 A3011 RMK AO2 T01500145
KCZL 160815Z AUTO 01008G15KT 10SM SCT011 BKN022 OVC041 15/15 A3011 RMK AO2 T01520145
KCZL 160755Z AUTO 01010G16KT 330V040 10SM -RA BKN011 BKN015 OVC041 16/15 A3012 RMK AO2 T01590153
KCZL 160735Z AUTO 35005KT 10SM OVC011 17/16 A3011 RMK AO2 T01650164
KCZL 160715Z AUTO 34006KT 10SM -RA OVC013 17/17 A3011 RMK AO2 T01660165
KCZL 160655Z AUTO 01007KT 10SM BKN013 OVC049 17/17 A3010 RMK AO2 T01690166
KCZL 160635Z AUTO 33006KT 10SM SCT011 SCT035 BKN110 18/17 A3011 RMK AO2 T01760174
KCZL 160615Z AUTO 36004KT 10SM -RA SCT011 SCT028 BKN050 18/18 A3010 RMK AO2 T01800180
KCZL 160555Z AUTO 01007KT 10SM RA BKN026 BKN038 OVC047 18/18 A3009 RMK AO2 T01820180 10223 20182 402710170
KCZL 160535Z AUTO 36008KT 10SM DZ BKN023 OVC035 19/18 A3010 RMK AO2 T01850180
KCZL 160515Z AUTO 35008KT 4SM RA SCT017 BKN030 OVC036 19/19 A3010 RMK AO2 T01920190
KCZL 160455Z AUTO 35005KT 10SM RA BKN030 OVC035 20/19 A3010 RMK AO2 T01950194
KCZL 160435Z AUTO 35007KT 10SM -RA SCT028 OVC035 20/19 A3009 RMK AO2 T01990194
KCZL 160415Z AUTO 36005KT 10SM SCT009 BKN033 BKN055 20/20 A3008 RMK AO2 T02000195
KCZL 160355Z AUTO 01007KT 350V050 10SM SCT009 SCT027 SCT037 21/21 A3008 RMK AO2 T02100210
KCZL 160340Z AUTO 01004KT 7SM RA SCT007 SCT018 BKN029 21/21 A3008 RMK AO2 T02120212
KCZL 160315Z AUTO 04003KT 5SM -RA SCT012 BKN019 OVC044 21/21 A3008 RMK AO2 T02100210
KCZL 160255Z AUTO 00000KT 3SM +RA SCT014 BKN030 OVC044 21/21 A3009 RMK AO2 T02110211
KCZL 160235Z AUTO 36008G14KT 3SM +RA SCT015 BKN024 OVC043 22/22 A3008 RMK AO2 T02180216
KCZL 160215Z AUTO 00000KT 10SM SCT036 SCT043 OVC110 22/22 A3007 RMK AO2 T02200218
KCZL 160155Z AUTO 00000KT 10SM OVC110 22/22 A3006 RMK AO2 T02200220
KCZL 160135Z AUTO 20003KT 10SM SCT110 22/22 A3006 RMK AO2 T02180218
KCZL 160115Z AUTO 19003KT 10SM SCT041 22/22 A3006 RMK AO2 T02190219
KCZL 160055Z AUTO 00000KT 10SM CLR 22/22 A3006 RMK AO2 T02200218
KCZL 160035Z AUTO 00000KT 10SM CLR 22/22 A3005 RMK AO2 T02150215
KCZL 160015Z AUTO 00000KT 10SM CLR 22/22 A3005 RMK AO2 T02190219
KCZL 152355Z AUTO 00000KT 10SM SCT032 22/22 A3004 RMK AO2 T02240220 10271 20224
KCZL 152335Z AUTO 00000KT 10SM CLR 23/22 A3003 RMK AO2 T02310223
KCZL 152315Z AUTO 00000KT 10SM CLR 23/22 A3003 RMK AO2 T02330223
KCZL 152255Z AUTO 00000KT 10SM CLR 25/22 A3003 RMK AO2 T02480215
KCZL 152235Z AUTO 18007KT 10SM CLR 26/22 A3002 RMK AO2 T02550215
KCZL 152215Z AUTO 19006KT 10SM CLR 26/20 A3003 RMK AO2 T02600200
KCZL 152155Z AUTO 19005KT 10SM CLR 26/21 A3004 RMK AO2 T02620205
KCZL 152135Z AUTO 18007KT 10SM SCT120 27/20 A3004 RMK AO2 T02660201